sensor_id;sensor_type;location;lat;lon;timestamp;pressure;altitude;pressure_sealevel;temperature;humidity
74881;BME280;63427;49.654;6.596;2023-09-19T00:01:42;99235.16;;;20.22;41.75
74881;BME280;63427;49.654;6.596;2023-09-19T00:04:07;99236.99;;;20.45;41.46
74881;BME280;63427;49.654;6.596;2023-09-19T00:06:33;99241.74;;;20.12;41.58
74881;BME280;63427;49.654;6.596;2023-09-19T00:08:58;99241.88;;;20.35;41.32
74881;BME280;63427;49.654;6.596;2023-09-19T00:11:23;99245.77;;;20.32;41.38
74881;BME280;63427;49.654;6.596;2023-09-19T00:13:48;99245.96;;;19.98;42.22
74881;BME280;63427;49.654;6.596;2023-09-19T00:16:13;99254.88;;;20.10;42.29
74881;BME280;63427;49.654;6.596;2023-09-19T00:18:39;99258.82;;;19.97;42.41
74881;BME280;63427;49.654;6.596;2023-09-19T00:21:04;99261.29;;;20.27;42.13
74881;BME280;63427;49.654;6.596;2023-09-19T00:23:29;99264.65;;;19.91;42.24
74881;BME280;63427;49.654;6.596;2023-09-19T00:25:58;99264.79;;;20.07;42.56
74881;BME280;63427;49.654;6.596;2023-09-19T00:28:20;99267.50;;;20.19;42.57
74881;BME280;63427;49.654;6.596;2023-09-19T00:30:45;99267.64;;;19.94;42.33
74881;BME280;63427;49.654;6.596;2023-09-19T00:33:10;99263.96;;;20.17;42.46
74881;BME280;63427;49.654;6.596;2023-09-19T00:35:35;99261.41;;;19.31;44.27
74881;BME280;63427;49.654;6.596;2023-09-19T00:38:01;99264.16;;;19.21;43.99
74881;BME280;63427;49.654;6.596;2023-09-19T00:40:26;99264.09;;;19.66;43.45
74881;BME280;63427;49.654;6.596;2023-09-19T00:42:51;99268.98;;;19.15;43.49
74881;BME280;63427;49.654;6.596;2023-09-19T00:45:17;99274.50;;;19.31;43.15
74881;BME280;63427;49.654;6.596;2023-09-19T00:47:43;99277.78;;;19.30;43.04
74881;BME280;63427;49.654;6.596;2023-09-19T00:50:08;99280.15;;;19.36;42.98
74881;BME280;63427;49.654;6.596;2023-09-19T00:52:32;99280.34;;;19.56;42.36
74881;BME280;63427;49.654;6.596;2023-09-19T00:54:58;99284.11;;;19.33;42.83
74881;BME280;63427;49.654;6.596;2023-09-19T00:57:23;99287.34;;;19.61;43.06
74881;BME280;63427;49.654;6.596;2023-09-19T00:59:50;99293.74;;;19.00;43.05
74881;BME280;63427;49.654;6.596;2023-09-19T01:02:13;99293.61;;;19.33;42.75
74881;BME280;63427;49.654;6.596;2023-09-19T01:04:40;99293.07;;;19.31;42.70
74881;BME280;63427;49.654;6.596;2023-09-19T01:07:04;99298.85;;;19.44;42.89
74881;BME280;63427;49.654;6.596;2023-09-19T01:09:29;99301.08;;;19.13;43.29
74881;BME280;63427;49.654;6.596;2023-09-19T01:12:00;99294.93;;;18.68;43.48
74881;BME280;63427;49.654;6.596;2023-09-19T01:14:28;99294.71;;;19.02;43.43
74881;BME280;63427;49.654;6.596;2023-09-19T01:16:51;99295.39;;;18.99;43.17
74881;BME280;63427;49.654;6.596;2023-09-19T01:19:26;99298.09;;;18.71;43.88
74881;BME280;63427;49.654;6.596;2023-09-19T01:21:44;99299.90;;;18.64;43.72
74881;BME280;63427;49.654;6.596;2023-09-19T01:26:42;99315.69;;;19.13;43.14
74881;BME280;63427;49.654;6.596;2023-09-19T01:28:54;99318.79;;;18.79;43.07
74881;BME280;63427;49.654;6.596;2023-09-19T01:31:19;99322.64;;;19.26;42.94
74881;BME280;63427;49.654;6.596;2023-09-19T01:33:54;99332.13;;;18.83;43.05
74881;BME280;63427;49.654;6.596;2023-09-19T01:36:09;99335.21;;;18.95;43.06
74881;BME280;63427;49.654;6.596;2023-09-19T01:38:34;99335.93;;;18.87;42.97
74881;BME280;63427;49.654;6.596;2023-09-19T01:41:05;99337.09;;;19.19;42.63
74881;BME280;63427;49.654;6.596;2023-09-19T01:43:30;99336.14;;;19.23;42.77
74881;BME280;63427;49.654;6.596;2023-09-19T01:45:57;99340.46;;;19.01;42.92
74881;BME280;63427;49.654;6.596;2023-09-19T01:48:28;99341.43;;;18.73;43.55
74881;BME280;63427;49.654;6.596;2023-09-19T01:50:46;99336.69;;;18.50;43.33
74881;BME280;63427;49.654;6.596;2023-09-19T01:53:14;99331.85;;;18.95;42.79
74881;BME280;63427;49.654;6.596;2023-09-19T01:55:37;99329.69;;;18.71;42.76
74881;BME280;63427;49.654;6.596;2023-09-19T01:58:07;99329.46;;;18.86;42.95
74881;BME280;63427;49.654;6.596;2023-09-19T02:00:23;99328.99;;;18.95;42.67
74881;BME280;63427;49.654;6.596;2023-09-19T02:02:47;99326.68;;;18.17;43.62
74881;BME280;63427;49.654;6.596;2023-09-19T02:05:12;99327.95;;;18.71;43.16
74881;BME280;63427;49.654;6.596;2023-09-19T02:07:38;99328.26;;;18.84;42.81
74881;BME280;63427;49.654;6.596;2023-09-19T02:10:03;99334.40;;;18.67;42.94
74881;BME280;63427;49.654;6.596;2023-09-19T02:12:29;99336.51;;;18.75;42.95
74881;BME280;63427;49.654;6.596;2023-09-19T02:14:54;99337.44;;;18.67;42.98
74881;BME280;63427;49.654;6.596;2023-09-19T02:17:19;99336.54;;;18.62;43.18
74881;BME280;63427;49.654;6.596;2023-09-19T02:19:44;99339.69;;;18.38;43.58
74881;BME280;63427;49.654;6.596;2023-09-19T02:22:09;99340.48;;;18.43;43.91
74881;BME280;63427;49.654;6.596;2023-09-19T02:24:35;99350.44;;;18.42;43.53
74881;BME280;63427;49.654;6.596;2023-09-19T02:27:00;99352.69;;;18.65;43.77
74881;BME280;63427;49.654;6.596;2023-09-19T02:29:25;99355.26;;;18.76;43.19
74881;BME280;63427;49.654;6.596;2023-09-19T02:31:51;99354.27;;;18.35;43.30
74881;BME280;63427;49.654;6.596;2023-09-19T02:34:16;99358.64;;;18.67;43.30
74881;BME280;63427;49.654;6.596;2023-09-19T02:36:41;99361.60;;;18.68;43.30
74881;BME280;63427;49.654;6.596;2023-09-19T02:39:07;99360.66;;;18.54;43.14
74881;BME280;63427;49.654;6.596;2023-09-19T02:41:32;99367.22;;;18.72;42.64
74881;BME280;63427;49.654;6.596;2023-09-19T02:43:57;99371.97;;;18.72;42.93
74881;BME280;63427;49.654;6.596;2023-09-19T02:46:22;99380.24;;;18.57;42.57
74881;BME280;63427;49.654;6.596;2023-09-19T02:48:48;99379.45;;;18.49;42.74
74881;BME280;63427;49.654;6.596;2023-09-19T02:51:13;99382.49;;;18.26;43.39
74881;BME280;63427;49.654;6.596;2023-09-19T02:53:38;99379.15;;;18.50;42.62
74881;BME280;63427;49.654;6.596;2023-09-19T02:56:04;99380.49;;;18.73;42.50
74881;BME280;63427;49.654;6.596;2023-09-19T02:58:29;99384.26;;;18.94;42.11
74881;BME280;63427;49.654;6.596;2023-09-19T03:00:54;99383.62;;;18.43;42.55
74881;BME280;63427;49.654;6.596;2023-09-19T03:03:19;99382.33;;;18.30;42.94
74881;BME280;63427;49.654;6.596;2023-09-19T03:05:45;99389.53;;;18.41;42.74
74881;BME280;63427;49.654;6.596;2023-09-19T03:08:11;99390.86;;;18.32;42.45
74881;BME280;63427;49.654;6.596;2023-09-19T03:10:36;99396.28;;;18.98;41.85
74881;BME280;63427;49.654;6.596;2023-09-19T03:13:01;99400.67;;;18.19;42.91
74881;BME280;63427;49.654;6.596;2023-09-19T03:15:27;99397.96;;;18.28;42.72
74881;BME280;63427;49.654;6.596;2023-09-19T03:17:52;99405.40;;;18.46;42.34
74881;BME280;63427;49.654;6.596;2023-09-19T03:20:17;99402.66;;;18.38;42.24
74881;BME280;63427;49.654;6.596;2023-09-19T03:22:42;99401.55;;;18.55;42.38
74881;BME280;63427;49.654;6.596;2023-09-19T03:25:08;99399.80;;;18.52;42.37
74881;BME280;63427;49.654;6.596;2023-09-19T03:27:33;99395.11;;;18.72;42.08
74881;BME280;63427;49.654;6.596;2023-09-19T03:29:59;99397.70;;;18.80;41.86
74881;BME280;63427;49.654;6.596;2023-09-19T03:32:24;99391.98;;;18.44;42.20
74881;BME280;63427;49.654;6.596;2023-09-19T03:34:50;99389.31;;;18.70;42.09
74881;BME280;63427;49.654;6.596;2023-09-19T03:37:15;99384.76;;;18.42;42.59
74881;BME280;63427;49.654;6.596;2023-09-19T03:39:40;99382.35;;;18.46;42.40
74881;BME280;63427;49.654;6.596;2023-09-19T03:42:06;99380.68;;;18.75;42.22
74881;BME280;63427;49.654;6.596;2023-09-19T03:44:30;99385.50;;;18.31;42.34
74881;BME280;63427;49.654;6.596;2023-09-19T03:46:56;99387.87;;;18.48;42.43
74881;BME280;63427;49.654;6.596;2023-09-19T03:49:21;99390.43;;;18.16;42.88
74881;BME280;63427;49.654;6.596;2023-09-19T03:51:46;99383.30;;;18.19;42.79
74881;BME280;63427;49.654;6.596;2023-09-19T03:54:12;99377.02;;;18.17;43.07
74881;BME280;63427;49.654;6.596;2023-09-19T03:56:38;99381.91;;;18.04;43.11
74881;BME280;63427;49.654;6.596;2023-09-19T03:59:02;99382.09;;;17.94;43.12
74881;BME280;63427;49.654;6.596;2023-09-19T04:01:28;99377.45;;;18.14;43.41
74881;BME280;63427;49.654;6.596;2023-09-19T04:03:53;99377.01;;;18.19;43.31
74881;BME280;63427;49.654;6.596;2023-09-19T04:06:18;99372.19;;;18.33;43.05
74881;BME280;63427;49.654;6.596;2023-09-19T04:08:44;99380.41;;;17.75;43.96
74881;BME280;63427;49.654;6.596;2023-09-19T04:11:09;99380.91;;;17.79;44.05
74881;BME280;63427;49.654;6.596;2023-09-19T04:13:34;99386.89;;;18.19;43.67
74881;BME280;63427;49.654;6.596;2023-09-19T04:15:59;99389.98;;;18.19;43.69
74881;BME280;63427;49.654;6.596;2023-09-19T04:18:25;99391.93;;;18.00;43.70
74881;BME280;63427;49.654;6.596;2023-09-19T04:20:50;99392.21;;;18.24;43.37
74881;BME280;63427;49.654;6.596;2023-09-19T04:23:16;99390.91;;;17.86;43.37
74881;BME280;63427;49.654;6.596;2023-09-19T04:25:41;99393.68;;;18.39;43.30
74881;BME280;63427;49.654;6.596;2023-09-19T04:28:06;99394.23;;;18.21;43.66
74881;BME280;63427;49.654;6.596;2023-09-19T04:30:32;99399.72;;;17.84;44.31
74881;BME280;63427;49.654;6.596;2023-09-19T04:32:57;99399.33;;;17.92;44.12
74881;BME280;63427;49.654;6.596;2023-09-19T04:35:24;99404.59;;;17.94;44.52
74881;BME280;63427;49.654;6.596;2023-09-19T04:37:47;99409.47;;;17.73;44.84
74881;BME280;63427;49.654;6.596;2023-09-19T04:40:13;99421.49;;;17.78;44.51
74881;BME280;63427;49.654;6.596;2023-09-19T04:42:39;99422.26;;;17.97;44.24
74881;BME280;63427;49.654;6.596;2023-09-19T04:45:04;99432.16;;;17.68;44.54
74881;BME280;63427;49.654;6.596;2023-09-19T04:47:29;99438.10;;;17.66;44.39
74881;BME280;63427;49.654;6.596;2023-09-19T04:49:54;99446.22;;;17.39;44.29
74881;BME280;63427;49.654;6.596;2023-09-19T04:52:19;99458.69;;;17.75;44.42
74881;BME280;63427;49.654;6.596;2023-09-19T04:54:45;99452.78;;;17.34;44.81
74881;BME280;63427;49.654;6.596;2023-09-19T04:57:10;99457.19;;;17.32;44.45
74881;BME280;63427;49.654;6.596;2023-09-19T04:59:36;99460.52;;;17.30;44.83
74881;BME280;63427;49.654;6.596;2023-09-19T05:02:01;99459.69;;;17.39;44.36
74881;BME280;63427;49.654;6.596;2023-09-19T05:04:26;99454.38;;;17.05;44.24
74881;BME280;63427;49.654;6.596;2023-09-19T05:06:51;99458.14;;;17.33;44.37
74881;BME280;63427;49.654;6.596;2023-09-19T05:09:17;99459.24;;;17.05;44.55
74881;BME280;63427;49.654;6.596;2023-09-19T05:11:42;99455.11;;;17.37;43.97
74881;BME280;63427;49.654;6.596;2023-09-19T05:14:07;99451.52;;;17.27;44.52
74881;BME280;63427;49.654;6.596;2023-09-19T05:16:33;99445.18;;;17.20;44.48
74881;BME280;63427;49.654;6.596;2023-09-19T05:18:58;99447.71;;;17.24;44.30
74881;BME280;63427;49.654;6.596;2023-09-19T05:21:23;99449.35;;;17.62;44.85
74881;BME280;63427;49.654;6.596;2023-09-19T05:23:52;99453.89;;;17.23;44.51
74881;BME280;63427;49.654;6.596;2023-09-19T05:26:14;99455.91;;;17.57;44.42
74881;BME280;63427;49.654;6.596;2023-09-19T05:28:39;99455.13;;;17.54;44.15
74881;BME280;63427;49.654;6.596;2023-09-19T05:31:05;99460.85;;;17.20;44.15
74881;BME280;63427;49.654;6.596;2023-09-19T05:33:30;99462.51;;;17.22;43.51
74881;BME280;63427;49.654;6.596;2023-09-19T05:35:55;99469.91;;;17.31;44.03
74881;BME280;63427;49.654;6.596;2023-09-19T05:38:21;99472.07;;;16.89;44.50
74881;BME280;63427;49.654;6.596;2023-09-19T05:40:46;99469.40;;;16.86;44.35
74881;BME280;63427;49.654;6.596;2023-09-19T05:43:12;99465.86;;;16.55;45.18
74881;BME280;63427;49.654;6.596;2023-09-19T05:45:37;99467.80;;;16.43;44.60
74881;BME280;63427;49.654;6.596;2023-09-19T05:48:08;99463.56;;;16.71;44.71
74881;BME280;63427;49.654;6.596;2023-09-19T05:50:28;99470.62;;;16.38;44.68
74881;BME280;63427;49.654;6.596;2023-09-19T05:52:55;99464.83;;;16.10;45.18
74881;BME280;63427;49.654;6.596;2023-09-19T05:55:18;99467.30;;;16.28;44.75
74881;BME280;63427;49.654;6.596;2023-09-19T05:57:49;99467.97;;;16.82;43.78
74881;BME280;63427;49.654;6.596;2023-09-19T06:00:10;99478.50;;;16.91;43.78
74881;BME280;63427;49.654;6.596;2023-09-19T06:02:35;99485.27;;;17.18;43.03
74881;BME280;63427;49.654;6.596;2023-09-19T06:05:00;99493.79;;;16.94;42.66
74881;BME280;63427;49.654;6.596;2023-09-19T06:07:25;99502.14;;;16.91;42.19
74881;BME280;63427;49.654;6.596;2023-09-19T06:09:51;99498.99;;;16.87;42.31
74881;BME280;63427;49.654;6.596;2023-09-19T06:12:16;99502.58;;;16.75;42.55
74881;BME280;63427;49.654;6.596;2023-09-19T06:14:42;99509.14;;;17.43;42.28
74881;BME280;63427;49.654;6.596;2023-09-19T06:17:07;99511.55;;;17.20;42.46
74881;BME280;63427;49.654;6.596;2023-09-19T06:19:32;99513.53;;;17.25;42.53
74881;BME280;63427;49.654;6.596;2023-09-19T06:21:57;99514.82;;;17.28;43.00
74881;BME280;63427;49.654;6.596;2023-09-19T06:24:23;99515.49;;;17.26;43.10
74881;BME280;63427;49.654;6.596;2023-09-19T06:26:48;99516.88;;;17.08;43.40
74881;BME280;63427;49.654;6.596;2023-09-19T06:29:13;99519.42;;;16.92;43.66
74881;BME280;63427;49.654;6.596;2023-09-19T06:31:39;99521.68;;;16.94;43.36
74881;BME280;63427;49.654;6.596;2023-09-19T06:34:04;99524.45;;;17.37;42.92
74881;BME280;63427;49.654;6.596;2023-09-19T06:36:29;99530.31;;;17.33;42.67
74881;BME280;63427;49.654;6.596;2023-09-19T06:38:54;99534.79;;;16.75;43.40
74881;BME280;63427;49.654;6.596;2023-09-19T06:41:20;99542.50;;;16.71;43.40
74881;BME280;63427;49.654;6.596;2023-09-19T06:43:46;99545.09;;;17.10;42.81
74881;BME280;63427;49.654;6.596;2023-09-19T06:46:10;99552.21;;;16.98;42.49
74881;BME280;63427;49.654;6.596;2023-09-19T06:48:36;99550.85;;;16.71;42.48
74881;BME280;63427;49.654;6.596;2023-09-19T06:51:02;99556.65;;;17.21;42.39
74881;BME280;63427;49.654;6.596;2023-09-19T06:53:27;99557.26;;;17.09;42.23
74881;BME280;63427;49.654;6.596;2023-09-19T06:55:51;99557.27;;;16.64;42.15
74881;BME280;63427;49.654;6.596;2023-09-19T06:58:17;99560.59;;;17.02;42.23
74881;BME280;63427;49.654;6.596;2023-09-19T07:00:42;99561.11;;;17.53;41.64
74881;BME280;63427;49.654;6.596;2023-09-19T07:03:08;99568.25;;;16.75;42.12
74881;BME280;63427;49.654;6.596;2023-09-19T07:05:34;99575.38;;;16.90;42.38
74881;BME280;63427;49.654;6.596;2023-09-19T07:07:59;99576.94;;;17.17;41.61
74881;BME280;63427;49.654;6.596;2023-09-19T07:10:24;99577.52;;;17.45;41.48
74881;BME280;63427;49.654;6.596;2023-09-19T07:12:54;99580.95;;;16.94;41.14
74881;BME280;63427;49.654;6.596;2023-09-19T07:15:14;99589.51;;;17.40;41.57
74881;BME280;63427;49.654;6.596;2023-09-19T07:17:40;99587.72;;;17.27;41.29
74881;BME280;63427;49.654;6.596;2023-09-19T07:20:06;99589.64;;;17.64;40.61
74881;BME280;63427;49.654;6.596;2023-09-19T07:22:30;99589.94;;;17.44;41.00
74881;BME280;63427;49.654;6.596;2023-09-19T07:24:55;99596.46;;;18.12;40.47
74881;BME280;63427;49.654;6.596;2023-09-19T07:27:21;99592.22;;;18.27;39.85
74881;BME280;63427;49.654;6.596;2023-09-19T07:29:46;99589.78;;;17.92;39.75
74881;BME280;63427;49.654;6.596;2023-09-19T07:32:12;99592.37;;;18.22;39.35
74881;BME280;63427;49.654;6.596;2023-09-19T07:34:37;99596.99;;;18.29;39.49
74881;BME280;63427;49.654;6.596;2023-09-19T07:37:03;99599.15;;;18.37;38.81
74881;BME280;63427;49.654;6.596;2023-09-19T07:39:28;99602.80;;;18.40;38.63
74881;BME280;63427;49.654;6.596;2023-09-19T07:41:53;99604.36;;;18.76;38.78
74881;BME280;63427;49.654;6.596;2023-09-19T07:44:18;99598.55;;;19.09;37.60
74881;BME280;63427;49.654;6.596;2023-09-19T07:46:44;99602.12;;;18.78;37.36
74881;BME280;63427;49.654;6.596;2023-09-19T07:49:09;99602.85;;;19.05;37.49
74881;BME280;63427;49.654;6.596;2023-09-19T07:51:34;99606.91;;;19.40;37.49
74881;BME280;63427;49.654;6.596;2023-09-19T07:53:59;99605.54;;;19.35;37.27
74881;BME280;63427;49.654;6.596;2023-09-19T07:56:25;99607.43;;;19.14;36.74
74881;BME280;63427;49.654;6.596;2023-09-19T07:58:50;99610.50;;;19.12;36.78
74881;BME280;63427;49.654;6.596;2023-09-19T08:01:15;99617.68;;;19.02;36.55
74881;BME280;63427;49.654;6.596;2023-09-19T08:03:40;99617.66;;;18.80;37.09
74881;BME280;63427;49.654;6.596;2023-09-19T08:06:06;99614.50;;;19.52;37.02
74881;BME280;63427;49.654;6.596;2023-09-19T08:08:31;99622.99;;;18.63;36.80
74881;BME280;63427;49.654;6.596;2023-09-19T08:10:58;99618.28;;;19.13;36.70
74881;BME280;63427;49.654;6.596;2023-09-19T08:13:22;99612.80;;;19.61;36.13
74881;BME280;63427;49.654;6.596;2023-09-19T08:15:46;99613.98;;;19.55;36.45
74881;BME280;63427;49.654;6.596;2023-09-19T08:18:12;99616.75;;;19.62;35.67
74881;BME280;63427;49.654;6.596;2023-09-19T08:20:37;99619.44;;;19.21;35.89
74881;BME280;63427;49.654;6.596;2023-09-19T08:23:03;99619.23;;;19.59;35.49
74881;BME280;63427;49.654;6.596;2023-09-19T08:25:29;99623.83;;;19.80;35.81
74881;BME280;63427;49.654;6.596;2023-09-19T08:27:55;99625.70;;;19.86;34.62
74881;BME280;63427;49.654;6.596;2023-09-19T08:30:20;99631.07;;;18.70;35.55
74881;BME280;63427;49.654;6.596;2023-09-19T08:32:44;99629.28;;;19.33;34.83
74881;BME280;63427;49.654;6.596;2023-09-19T08:35:09;99627.04;;;19.57;34.35
74881;BME280;63427;49.654;6.596;2023-09-19T08:37:34;99630.41;;;19.95;33.67
74881;BME280;63427;49.654;6.596;2023-09-19T08:39:59;99628.13;;;20.36;33.39
74881;BME280;63427;49.654;6.596;2023-09-19T08:42:24;99633.21;;;20.10;33.85
74881;BME280;63427;49.654;6.596;2023-09-19T08:44:50;99632.69;;;20.28;33.71
74881;BME280;63427;49.654;6.596;2023-09-19T08:47:16;99630.22;;;19.99;33.84
74881;BME280;63427;49.654;6.596;2023-09-19T08:49:48;99629.80;;;19.71;33.78
74881;BME280;63427;49.654;6.596;2023-09-19T08:52:13;99635.13;;;18.07;34.65
74881;BME280;63427;49.654;6.596;2023-09-19T08:54:35;99640.23;;;19.03;34.73
74881;BME280;63427;49.654;6.596;2023-09-19T08:57:00;99637.23;;;19.18;33.98
74881;BME280;63427;49.654;6.596;2023-09-19T08:59:22;99639.47;;;19.51;34.07
74881;BME280;63427;49.654;6.596;2023-09-19T09:01:46;99636.50;;;20.33;33.88
74881;BME280;63427;49.654;6.596;2023-09-19T09:04:11;99624.85;;;20.47;32.31
74881;BME280;63427;49.654;6.596;2023-09-19T09:06:37;99629.36;;;20.74;32.20
74881;BME280;63427;49.654;6.596;2023-09-19T09:09:02;99630.49;;;20.61;33.20
74881;BME280;63427;49.654;6.596;2023-09-19T09:11:28;99624.56;;;20.69;31.33
74881;BME280;63427;49.654;6.596;2023-09-19T09:13:52;99625.64;;;21.06;30.87
74881;BME280;63427;49.654;6.596;2023-09-19T09:16:17;99619.96;;;21.41;31.32
74881;BME280;63427;49.654;6.596;2023-09-19T09:18:43;99621.73;;;21.73;31.04
74881;BME280;63427;49.654;6.596;2023-09-19T09:21:07;99623.61;;;21.64;30.54
74881;BME280;63427;49.654;6.596;2023-09-19T09:23:32;99623.04;;;20.94;30.24
74881;BME280;63427;49.654;6.596;2023-09-19T09:25:59;99625.93;;;21.57;29.83
74881;BME280;63427;49.654;6.596;2023-09-19T09:28:25;99625.43;;;21.60;29.83
74881;BME280;63427;49.654;6.596;2023-09-19T09:30:48;99626.45;;;22.20;29.80
74881;BME280;63427;49.654;6.596;2023-09-19T09:33:14;99624.34;;;22.17;28.78
74881;BME280;63427;49.654;6.596;2023-09-19T09:35:48;99628.79;;;20.97;30.06
74881;BME280;63427;49.654;6.596;2023-09-19T09:38:04;99629.57;;;21.69;29.64
74881;BME280;63427;49.654;6.596;2023-09-19T09:42:55;99624.50;;;23.02;29.42
74881;BME280;63427;49.654;6.596;2023-09-19T09:45:21;99633.72;;;21.50;29.84
74881;BME280;63427;49.654;6.596;2023-09-19T09:47:46;99630.04;;;22.23;28.65
74881;BME280;63427;49.654;6.596;2023-09-19T09:50:11;99633.42;;;22.66;28.15
74881;BME280;63427;49.654;6.596;2023-09-19T09:52:46;99627.32;;;22.86;28.53
74881;BME280;63427;49.654;6.596;2023-09-19T09:55:02;99634.34;;;22.86;27.97
74881;BME280;63427;49.654;6.596;2023-09-19T09:57:26;99627.04;;;23.03;28.79
74881;BME280;63427;49.654;6.596;2023-09-19T09:59:52;99632.62;;;23.08;28.04
74881;BME280;63427;49.654;6.596;2023-09-19T10:02:18;99633.58;;;23.27;27.62
74881;BME280;63427;49.654;6.596;2023-09-19T10:04:41;99634.19;;;23.54;28.94
74881;BME280;63427;49.654;6.596;2023-09-19T10:07:06;99627.09;;;23.52;27.03
74881;BME280;63427;49.654;6.596;2023-09-19T10:12:03;99624.59;;;23.18;26.67
74881;BME280;63427;49.654;6.596;2023-09-19T10:14:29;99619.44;;;24.14;27.53
74881;BME280;63427;49.654;6.596;2023-09-19T10:16:47;99622.59;;;23.73;26.82
74881;BME280;63427;49.654;6.596;2023-09-19T10:19:15;99619.90;;;24.33;25.93
74881;BME280;63427;49.654;6.596;2023-09-19T10:21:36;99614.58;;;24.47;25.25
74881;BME280;63427;49.654;6.596;2023-09-19T10:24:03;99616.00;;;24.61;25.48
74881;BME280;63427;49.654;6.596;2023-09-19T10:26:27;99608.87;;;24.99;24.40
74881;BME280;63427;49.654;6.596;2023-09-19T10:28:52;99603.95;;;24.73;24.12
74881;BME280;63427;49.654;6.596;2023-09-19T10:31:19;99607.50;;;24.92;25.90
74881;BME280;63427;49.654;6.596;2023-09-19T10:33:44;99601.83;;;23.69;26.48
74881;BME280;63427;49.654;6.596;2023-09-19T10:36:10;99595.81;;;24.41;25.67
74881;BME280;63427;49.654;6.596;2023-09-19T10:38:37;99587.73;;;24.71;24.64
74881;BME280;63427;49.654;6.596;2023-09-19T10:41:01;99599.97;;;24.79;24.52
74881;BME280;63427;49.654;6.596;2023-09-19T10:43:30;99591.26;;;24.70;23.62
74881;BME280;63427;49.654;6.596;2023-09-19T10:45:54;99592.14;;;26.19;23.42
74881;BME280;63427;49.654;6.596;2023-09-19T10:48:19;99589.71;;;26.11;23.27
74881;BME280;63427;49.654;6.596;2023-09-19T10:50:48;99584.35;;;25.81;24.24
74881;BME280;63427;49.654;6.596;2023-09-19T10:53:11;99579.58;;;26.39;22.85
74881;BME280;63427;49.654;6.596;2023-09-19T10:55:36;99587.95;;;26.10;23.10
74881;BME280;63427;49.654;6.596;2023-09-19T10:58:02;99583.10;;;25.76;22.20
74881;BME280;63427;49.654;6.596;2023-09-19T11:00:28;99583.42;;;25.53;22.97
74881;BME280;63427;49.654;6.596;2023-09-19T11:05:19;99583.07;;;26.20;23.62
74881;BME280;63427;49.654;6.596;2023-09-19T11:07:57;99582.50;;;26.62;22.37
74881;BME280;63427;49.654;6.596;2023-09-19T11:12:49;99586.75;;;25.33;22.83
74881;BME280;63427;49.654;6.596;2023-09-19T11:15:03;99584.57;;;26.09;22.12
74881;BME280;63427;49.654;6.596;2023-09-19T11:17:31;99588.84;;;26.33;22.02
74881;BME280;63427;49.654;6.596;2023-09-19T11:22:20;99587.26;;;25.50;23.38
74881;BME280;63427;49.654;6.596;2023-09-19T11:24:45;99586.81;;;25.33;22.47
74881;BME280;63427;49.654;6.596;2023-09-19T11:27:14;99579.38;;;26.77;22.23
74881;BME280;63427;49.654;6.596;2023-09-19T11:29:37;99580.72;;;25.63;21.91
74881;BME280;63427;49.654;6.596;2023-09-19T11:32:02;99582.33;;;24.27;24.19
74881;BME280;63427;49.654;6.596;2023-09-19T11:34:39;99577.30;;;24.90;23.72
74881;BME280;63427;49.654;6.596;2023-09-19T11:36:54;99566.42;;;26.20;22.20
74881;BME280;63427;49.654;6.596;2023-09-19T11:39:25;99563.43;;;26.06;22.06
74881;BME280;63427;49.654;6.596;2023-09-19T11:41:46;99565.24;;;26.24;21.30
74881;BME280;63427;49.654;6.596;2023-09-19T11:49:06;99545.29;;;27.44;20.95
74881;BME280;63427;49.654;6.596;2023-09-19T11:51:39;99547.45;;;27.22;21.29
74881;BME280;63427;49.654;6.596;2023-09-19T11:53:56;99545.93;;;27.43;20.31
74881;BME280;63427;49.654;6.596;2023-09-19T11:56:22;99542.92;;;27.54;21.08
74881;BME280;63427;49.654;6.596;2023-09-19T11:58:46;99534.14;;;27.76;20.82
74881;BME280;63427;49.654;6.596;2023-09-19T12:01:13;99543.28;;;27.33;20.75
74881;BME280;63427;49.654;6.596;2023-09-19T12:03:38;99537.74;;;27.57;21.35
74881;BME280;63427;49.654;6.596;2023-09-19T12:06:11;99534.00;;;26.95;21.32
74881;BME280;63427;49.654;6.596;2023-09-19T12:08:29;99543.94;;;26.52;21.63
74881;BME280;63427;49.654;6.596;2023-09-19T12:10:55;99544.08;;;27.63;21.29
74881;BME280;63427;49.654;6.596;2023-09-19T12:13:20;99544.42;;;27.41;20.53
74881;BME280;63427;49.654;6.596;2023-09-19T12:15:47;99539.58;;;27.69;21.16
74881;BME280;63427;49.654;6.596;2023-09-19T12:20:44;99544.36;;;28.33;20.21
74881;BME280;63427;49.654;6.596;2023-09-19T12:23:12;99536.13;;;28.78;19.83
74881;BME280;63427;49.654;6.596;2023-09-19T12:27:55;99539.61;;;27.04;21.61
74881;BME280;63427;49.654;6.596;2023-09-19T12:30:27;99542.51;;;26.61;21.46
74881;BME280;63427;49.654;6.596;2023-09-19T12:32:46;99543.30;;;27.02;21.17
74881;BME280;63427;49.654;6.596;2023-09-19T12:35:27;99532.43;;;26.54;21.55
74881;BME280;63427;49.654;6.596;2023-09-19T12:37:43;99531.08;;;27.93;21.40
74881;BME280;63427;49.654;6.596;2023-09-19T12:40:05;99526.92;;;28.16;20.76
74881;BME280;63427;49.654;6.596;2023-09-19T12:42:29;99517.56;;;28.34;19.76
74881;BME280;63427;49.654;6.596;2023-09-19T12:44:55;99515.23;;;29.00;20.55
74881;BME280;63427;49.654;6.596;2023-09-19T12:47:21;99516.41;;;29.54;19.28
74881;BME280;63427;49.654;6.596;2023-09-19T12:52:12;99517.12;;;28.28;20.16
74881;BME280;63427;49.654;6.596;2023-09-19T12:54:38;99516.81;;;28.80;19.78
74881;BME280;63427;49.654;6.596;2023-09-19T12:57:04;99510.16;;;28.91;19.54
74881;BME280;63427;49.654;6.596;2023-09-19T12:59:30;99514.94;;;29.29;19.10
74881;BME280;63427;49.654;6.596;2023-09-19T13:02:03;99518.16;;;29.58;19.14
74881;BME280;63427;49.654;6.596;2023-09-19T13:04:21;99512.24;;;29.40;19.06
74881;BME280;63427;49.654;6.596;2023-09-19T13:06:47;99505.91;;;29.73;19.16
74881;BME280;63427;49.654;6.596;2023-09-19T13:09:12;99504.07;;;29.75;19.21
74881;BME280;63427;49.654;6.596;2023-09-19T13:11:38;99505.53;;;29.61;19.64
74881;BME280;63427;49.654;6.596;2023-09-19T13:14:14;99501.61;;;29.76;19.61
74881;BME280;63427;49.654;6.596;2023-09-19T13:16:29;99496.44;;;30.18;19.03